createdAt,value
2023-04-01T00:01:54.265Z,97601.54
2023-04-01T00:06:57.755Z,97594.20
2023-04-01T00:12:00.609Z,97585.77
2023-04-01T00:17:03.824Z,97581.23
2023-04-01T00:22:07.222Z,97575.01
2023-04-01T00:27:11.384Z,97581.67
2023-04-01T00:32:15.699Z,97584.60
2023-04-01T00:37:19.011Z,97578.89
2023-04-01T00:42:21.898Z,97578.95
2023-04-01T00:47:27.480Z,97577.13
2023-04-01T00:52:30.343Z,97582.25
2023-04-01T00:57:38.288Z,97565.46
2023-04-01T01:02:44.139Z,97565.98
2023-04-01T01:08:41.003Z,97563.98
2023-04-01T01:14:06.819Z,97556.88
2023-04-01T01:20:25.431Z,97551.02
2023-04-01T01:25:47.405Z,97550.44
2023-04-01T01:31:08.863Z,97550.70
2023-04-01T01:36:15.145Z,97550.55
2023-04-01T01:41:19.493Z,97548.41
2023-04-01T01:46:27.190Z,97541.20
2023-04-01T01:51:30.118Z,97538.71
2023-04-01T01:56:36.247Z,97534.33
2023-04-01T02:01:46.116Z,97534.44
2023-04-01T02:07:03.401Z,97530.86
2023-04-01T02:12:09.226Z,97531.20
2023-04-01T02:17:19.599Z,97533.47
2023-04-01T02:22:32.761Z,97534.17
2023-04-01T02:27:35.741Z,97532.33
2023-04-01T02:32:40.702Z,97539.37
2023-04-01T02:37:45.005Z,97542.72
2023-04-01T02:42:47.841Z,97548.90
2023-04-01T02:47:50.703Z,97548.90
2023-04-01T02:52:53.541Z,97557.30
2023-04-01T02:57:56.705Z,97561.68
2023-04-01T03:02:59.606Z,97566.15
2023-04-01T03:08:03.640Z,97574.23
2023-04-01T03:13:07.293Z,97577.13
2023-04-01T03:18:10.005Z,97583.38
2023-04-01T03:23:13.577Z,97584.71
2023-04-01T03:28:16.395Z,97587.30
2023-04-01T03:33:19.199Z,97586.59
2023-04-01T03:38:22.013Z,97593.84
2023-04-01T03:43:24.872Z,97594.49
2023-04-01T03:48:27.713Z,97597.72
2023-04-01T03:53:30.598Z,97595.04
2023-04-01T03:58:33.721Z,97598.75
2023-04-01T04:03:37.191Z,97608.73
2023-04-01T04:08:40.241Z,97612.71
2023-04-01T04:13:44.221Z,97618.93
2023-04-01T04:18:47.185Z,97616.16
2023-04-01T04:23:50.131Z,97619.19
2023-04-01T04:28:53.069Z,97625.03
2023-04-01T04:33:56.195Z,97633.77
2023-04-01T04:39:02.896Z,97635.50
2023-04-01T04:44:06.400Z,97641.77
2023-04-01T04:49:09.216Z,97642.77
2023-04-01T04:54:12.123Z,97650.71
2023-04-01T04:59:14.914Z,97657.85
2023-04-01T05:04:17.736Z,97661.00
2023-04-01T05:09:20.684Z,97665.50
2023-04-01T05:14:23.484Z,97653.17
2023-04-01T05:19:26.265Z,97652.54
2023-04-01T05:24:29.109Z,97656.02
2023-04-01T05:29:31.921Z,97660.19
2023-04-01T05:34:34.721Z,97657.85
2023-04-01T05:39:39.447Z,97654.52
2023-04-01T05:44:42.261Z,97649.84
2023-04-01T05:49:45.066Z,97645.49
2023-04-01T05:54:47.880Z,97646.04
2023-04-01T05:59:50.675Z,97644.17
2023-04-01T06:05:11.636Z,97638.93
2023-04-01T06:10:22.485Z,97639.02
2023-04-01T06:15:44.629Z,97633.35
2023-04-01T06:21:41.599Z,97636.70
2023-04-01T06:27:40.123Z,97632.86
2023-04-01T06:33:31.037Z,97629.40
2023-04-01T06:39:11.175Z,97629.70
2023-04-01T06:44:51.315Z,97629.08
2023-04-01T06:50:54.005Z,97626.84
2023-04-01T06:56:12.057Z,97630.89
2023-04-01T07:01:21.923Z,97632.56
2023-04-01T07:06:36.271Z,97633.95
2023-04-01T07:11:41.082Z,97644.73
2023-04-01T07:17:01.229Z,97645.17
2023-04-01T07:22:25.582Z,97653.34
2023-04-01T07:27:31.570Z,97655.39
2023-04-01T07:32:51.556Z,97660.91
2023-04-01T07:38:38.959Z,97658.54
2023-04-01T07:44:26.777Z,97659.17
2023-04-01T07:49:47.966Z,97664.36
2023-04-01T07:55:17.596Z,97666.92
2023-04-01T08:01:21.064Z,97669.96
2023-04-01T08:06:38.615Z,97672.17
2023-04-01T08:12:25.149Z,97671.33
2023-04-01T08:17:52.339Z,97675.45
2023-04-01T08:23:18.286Z,97676.91
2023-04-01T08:28:33.732Z,97678.97
2023-04-01T08:33:37.857Z,97681.95
2023-04-01T08:39:02.733Z,97673.86
2023-04-01T08:44:23.627Z,97667.17
2023-04-01T08:49:57.490Z,97664.00
2023-04-01T08:55:18.441Z,97664.55
2023-04-01T09:00:45.838Z,97658.79
2023-04-01T09:06:18.886Z,97661.42
2023-04-01T09:11:49.126Z,97659.77
2023-04-01T09:17:07.153Z,97662.25
2023-04-01T09:22:12.909Z,97662.15
2023-04-01T09:27:45.302Z,97657.53
2023-04-01T09:33:12.891Z,97656.41
2023-04-01T09:38:18.794Z,97659.43
2023-04-01T09:43:29.421Z,97660.48
2023-04-01T09:48:47.897Z,97663.70
2023-04-01T09:54:27.705Z,97663.84
2023-04-01T10:00:06.258Z,97663.57
2023-04-01T10:05:35.749Z,97666.06
2023-04-01T10:10:38.837Z,97669.73
2023-04-01T10:16:32.800Z,97669.60
2023-04-01T10:22:24.536Z,97667.33
2023-04-01T10:27:59.869Z,97666.48
2023-04-01T10:33:26.777Z,97669.83
2023-04-01T10:39:09.757Z,97678.19
2023-04-01T10:44:52.655Z,97672.35
2023-04-01T10:50:32.449Z,97671.01
2023-04-01T10:56:12.687Z,97668.33
2023-04-01T11:01:54.906Z,97668.09
2023-04-01T11:07:31.309Z,97666.17
2023-04-01T11:13:11.886Z,97662.67
2023-04-01T11:19:10.927Z,97670.78
2023-04-01T11:24:41.465Z,97668.55
2023-04-01T11:30:15.880Z,97667.70
2023-04-01T11:36:21.654Z,97666.91
2023-04-01T11:41:38.369Z,97665.12
2023-04-01T11:47:22.114Z,97665.38
2023-04-01T11:52:58.287Z,97668.27
2023-04-01T11:58:51.176Z,97665.80
2023-04-01T12:04:49.571Z,97664.88
2023-04-01T12:10:18.478Z,97670.55
2023-04-01T12:15:42.546Z,97677.98
2023-04-01T12:20:54.108Z,97677.03
2023-04-01T12:26:37.552Z,97672.25
2023-04-01T12:32:04.351Z,97666.87
2023-04-01T12:37:44.344Z,97663.65
2023-04-01T12:42:59.096Z,97663.52
2023-04-01T12:48:40.208Z,97663.96
2023-04-01T12:53:56.863Z,97690.14
2023-04-01T12:59:24.059Z,97712.41
2023-04-01T13:04:42.156Z,97702.73
2023-04-01T13:10:01.259Z,97700.24
2023-04-01T13:15:22.624Z,97706.23
2023-04-01T13:21:16.429Z,97709.71
2023-04-01T13:26:39.109Z,97711.96
2023-04-01T13:32:12.266Z,97714.40
2023-04-01T13:37:28.551Z,97712.28
2023-04-01T13:42:41.404Z,97709.27
2023-04-01T13:48:13.537Z,97719.32
2023-04-01T13:53:45.252Z,97724.80
2023-04-01T13:58:56.841Z,97728.22
2023-04-01T14:04:27.874Z,97726.64
2023-04-01T14:09:57.679Z,97731.61
2023-04-01T14:16:03.477Z,97732.57
2023-04-01T14:21:23.254Z,97736.13
2023-04-01T14:27:18.994Z,97735.85
2023-04-01T14:32:52.533Z,97739.94
2023-04-01T14:38:31.131Z,97747.89
2023-04-01T14:44:12.860Z,97757.27
2023-04-01T14:49:36.486Z,97768.02
2023-04-01T14:54:43.893Z,97769.36
2023-04-01T14:59:59.294Z,97760.46
2023-04-01T15:05:39.091Z,97759.06
2023-04-01T15:11:37.807Z,97760.88
2023-04-01T15:17:07.446Z,97763.23
2023-04-01T15:22:45.663Z,97766.52
2023-04-01T15:28:14.937Z,97773.77
2023-04-01T15:33:34.972Z,97777.73
2023-04-01T15:39:06.138Z,97776.92
2023-04-01T15:44:43.796Z,97786.54
2023-04-01T15:50:13.043Z,97787.74
2023-04-01T15:55:47.997Z,97795.17
2023-04-01T16:01:17.356Z,97802.20
2023-04-01T16:06:47.387Z,97803.89
2023-04-01T16:12:02.495Z,97810.70
2023-04-01T16:17:54.429Z,97818.50
2023-04-01T16:23:11.880Z,97826.71
2023-04-01T16:28:33.989Z,97836.73
2023-04-01T16:34:07.782Z,97838.59
2023-04-01T16:39:29.033Z,97850.27
2023-04-01T16:44:32.223Z,97852.85
2023-04-01T16:49:51.800Z,97859.91
2023-04-01T16:55:02.767Z,97866.30
2023-04-01T17:00:28.421Z,97867.09
2023-04-01T17:05:56.982Z,97871.78
2023-04-01T17:11:20.655Z,97882.89
2023-04-01T17:17:01.929Z,97888.45
2023-04-01T17:22:20.632Z,97895.79
2023-04-01T17:27:40.607Z,97900.77
2023-04-01T17:33:11.230Z,97908.09
2023-04-01T17:38:54.126Z,97910.42
2023-04-01T17:44:30.712Z,97912.52
2023-04-01T17:50:04.169Z,97923.19
2023-04-01T17:55:43.066Z,97936.90
2023-04-01T18:00:59.694Z,97956.95
2023-04-01T18:06:21.120Z,97963.00
2023-04-01T18:11:54.681Z,97979.81
2023-04-01T18:17:12.561Z,97983.06
2023-04-01T18:22:27.138Z,97986.75
2023-04-01T18:28:10.471Z,97995.53
2023-04-01T18:33:30.464Z,97998.79
2023-04-01T18:38:41.473Z,98010.20
2023-04-01T18:44:44.337Z,98017.58
2023-04-01T18:49:53.497Z,98017.61
2023-04-01T18:55:02.063Z,98023.33
2023-04-01T19:00:20.503Z,98030.03
2023-04-01T19:05:39.425Z,98041.48
2023-04-01T19:11:09.569Z,98049.04
2023-04-01T19:16:44.990Z,98056.85
2023-04-01T19:21:54.022Z,98060.33
2023-04-01T19:27:37.605Z,98068.77
2023-04-01T19:32:49.205Z,98076.99
2023-04-01T19:38:06.573Z,98087.02
2023-04-01T19:43:27.591Z,98102.05
2023-04-01T19:48:53.004Z,98114.89
2023-04-01T19:54:56.230Z,98127.11
2023-04-01T20:00:29.015Z,98130.57
2023-04-01T20:06:05.830Z,98138.10
2023-04-01T20:11:47.225Z,98145.28
2023-04-01T20:17:25.747Z,98154.48
2023-04-01T20:23:31.670Z,98161.27
2023-04-01T20:28:58.362Z,98166.55
2023-04-01T20:34:13.220Z,98174.84
2023-04-01T20:39:29.234Z,98180.41
2023-04-01T20:45:06.148Z,98183.88
2023-04-01T20:50:09.064Z,98186.08
2023-04-01T20:55:23.934Z,98196.79
2023-04-01T21:00:41.450Z,98198.75
2023-04-01T21:06:18.226Z,98202.87
2023-04-01T21:11:33.585Z,98212.45
2023-04-01T21:16:52.621Z,98221.94
2023-04-01T21:22:16.732Z,98230.65
2023-04-01T21:27:34.648Z,98236.58
2023-04-01T21:33:04.998Z,98240.60
2023-04-01T21:38:11.104Z,98248.45
2023-04-01T21:44:00.566Z,98250.41
2023-04-01T21:49:13.909Z,98256.35
2023-04-01T21:54:59.738Z,98262.85
2023-04-01T22:00:34.785Z,98266.89
2023-04-01T22:06:01.751Z,98269.67
2023-04-01T22:11:24.721Z,98277.82
2023-04-01T22:17:04.454Z,98284.37
2023-04-01T22:22:42.063Z,98287.96
2023-04-01T22:27:56.885Z,98299.17
2023-04-01T22:33:32.222Z,98302.11
2023-04-01T22:38:56.834Z,98308.16
2023-04-01T22:44:00.647Z,98313.95
2023-04-01T22:49:12.231Z,98318.50
2023-04-01T22:54:26.756Z,98323.92
2023-04-01T22:59:58.426Z,98331.27
2023-04-01T23:05:04.969Z,98335.98
2023-04-01T23:10:21.309Z,98340.56
2023-04-01T23:15:24.429Z,98344.05
2023-04-01T23:20:35.955Z,98347.55
2023-04-01T23:25:56.422Z,98350.59
2023-04-01T23:30:59.367Z,98353.30
2023-04-01T23:36:16.530Z,98355.31
2023-04-01T23:41:31.653Z,98361.63
2023-04-01T23:46:36.485Z,98366.11
2023-04-01T23:51:51.851Z,98368.25
2023-04-01T23:56:57.472Z,98377.06
